Tufts University, Massachusetts
Current Conditions -  °F | °C
As of 10:54 PM on Saturday 22 Nov 2014 (Local Time) from KBOS Reporting Station
Overcast Overcast  
Wind Chill: 33°   Ceiling: 18000
Heat Index: 42°   Visibility: 10mi
Dew Point: 22°   Wind: 22mph
Humidity: 45%   Direction: 230°SW
Pressure: 30.07"   Gusts: NA
Location:  42.4184°N, 71.1069°W
Report Text: KBOS 230354Z 23019KT 10SM FEW060 SCT110 BKN180 OVC250 06/M06 A3007 RMK AO2 PK WND 24026/0301 SLP181 T00561056
Loading
Personal Weather Stations






























Interactive Weather Map New forecast layout! Learn more

10-Day Weather Forecast

Advertisements
Track Severe Weather on mobile